sensor_id;sensor_type;location;lat;lon;timestamp;P1;durP1;ratioP1;P2;durP2;ratioP2
15944;SDS011;30172;48.832;8.732;2022-10-22T00:02:11;1.77;;;0.50;;
15944;SDS011;30172;48.832;8.732;2022-10-22T00:04:40;2.50;;;0.57;;
15944;SDS011;30172;48.832;8.732;2022-10-22T00:07:05;1.23;;;0.60;;
15944;SDS011;30172;48.832;8.732;2022-10-22T00:09:30;3.40;;;0.70;;
15944;SDS011;30172;48.832;8.732;2022-10-22T00:11:56;1.57;;;0.77;;
15944;SDS011;30172;48.832;8.732;2022-10-22T00:14:21;2.40;;;0.60;;
15944;SDS011;30172;48.832;8.732;2022-10-22T00:16:46;2.60;;;0.70;;
15944;SDS011;30172;48.832;8.732;2022-10-22T00:19:11;3.40;;;0.67;;
15944;SDS011;30172;48.832;8.732;2022-10-22T00:21:37;1.17;;;0.80;;
15944;SDS011;30172;48.832;8.732;2022-10-22T00:24:02;1.70;;;0.57;;
15944;SDS011;30172;48.832;8.732;2022-10-22T00:26:28;1.43;;;0.50;;
15944;SDS011;30172;48.832;8.732;2022-10-22T00:28:53;1.30;;;0.70;;
15944;SDS011;30172;48.832;8.732;2022-10-22T00:31:18;2.90;;;0.67;;
15944;SDS011;30172;48.832;8.732;2022-10-22T00:33:44;1.17;;;0.47;;
15944;SDS011;30172;48.832;8.732;2022-10-22T00:36:10;2.20;;;0.70;;
15944;SDS011;30172;48.832;8.732;2022-10-22T00:38:35;3.00;;;0.43;;
15944;SDS011;30172;48.832;8.732;2022-10-22T00:41:01;2.73;;;0.47;;
15944;SDS011;30172;48.832;8.732;2022-10-22T00:43:26;2.50;;;0.57;;
15944;SDS011;30172;48.832;8.732;2022-10-22T00:45:51;0.73;;;0.53;;
15944;SDS011;30172;48.832;8.732;2022-10-22T00:48:21;2.23;;;0.60;;
15944;SDS011;30172;48.832;8.732;2022-10-22T00:50:51;0.97;;;0.50;;
15944;SDS011;30172;48.832;8.732;2022-10-22T00:53:22;2.67;;;0.80;;
15944;SDS011;30172;48.832;8.732;2022-10-22T00:56:11;1.97;;;0.77;;
15944;SDS011;30172;48.832;8.732;2022-10-22T00:58:38;2.93;;;0.63;;
15944;SDS011;30172;48.832;8.732;2022-10-22T01:01:08;1.03;;;0.43;;
15944;SDS011;30172;48.832;8.732;2022-10-22T01:03:36;2.50;;;0.60;;
15944;SDS011;30172;48.832;8.732;2022-10-22T01:06:02;1.67;;;0.60;;
15944;SDS011;30172;48.832;8.732;2022-10-22T01:08:37;4.73;;;0.97;;
15944;SDS011;30172;48.832;8.732;2022-10-22T01:11:14;3.23;;;0.60;;
15944;SDS011;30172;48.832;8.732;2022-10-22T01:16:36;1.70;;;0.70;;
15944;SDS011;30172;48.832;8.732;2022-10-22T01:22:04;3.30;;;0.77;;
15944;SDS011;30172;48.832;8.732;2022-10-22T01:24:35;1.50;;;0.60;;
15944;SDS011;30172;48.832;8.732;2022-10-22T01:30:09;1.30;;;0.50;;
15944;SDS011;30172;48.832;8.732;2022-10-22T01:32:37;1.10;;;0.53;;
15944;SDS011;30172;48.832;8.732;2022-10-22T01:35:06;2.73;;;0.50;;
15944;SDS011;30172;48.832;8.732;2022-10-22T01:37:45;2.37;;;0.60;;
15944;SDS011;30172;48.832;8.732;2022-10-22T01:40:13;2.37;;;0.60;;
15944;SDS011;30172;48.832;8.732;2022-10-22T01:42:39;2.13;;;0.70;;
15944;SDS011;30172;48.832;8.732;2022-10-22T01:45:09;2.23;;;0.60;;
15944;SDS011;30172;48.832;8.732;2022-10-22T01:47:41;5.50;;;1.70;;
15944;SDS011;30172;48.832;8.732;2022-10-22T01:55:55;2.53;;;0.70;;
15944;SDS011;30172;48.832;8.732;2022-10-22T02:01:12;0.67;;;0.50;;
15944;SDS011;30172;48.832;8.732;2022-10-22T02:03:55;2.00;;;0.60;;
15944;SDS011;30172;48.832;8.732;2022-10-22T02:06:25;1.20;;;0.50;;
15944;SDS011;30172;48.832;8.732;2022-10-22T02:08:52;2.37;;;0.60;;
15944;SDS011;30172;48.832;8.732;2022-10-22T02:11:18;0.73;;;0.60;;
15944;SDS011;30172;48.832;8.732;2022-10-22T02:13:46;0.60;;;0.40;;
15944;SDS011;30172;48.832;8.732;2022-10-22T02:16:20;0.60;;;0.60;;
15944;SDS011;30172;48.832;8.732;2022-10-22T02:18:49;2.83;;;0.50;;
15944;SDS011;30172;48.832;8.732;2022-10-22T02:21:16;2.67;;;0.77;;
15944;SDS011;30172;48.832;8.732;2022-10-22T02:23:42;2.77;;;0.73;;
15944;SDS011;30172;48.832;8.732;2022-10-22T02:28:57;1.50;;;0.80;;
15944;SDS011;30172;48.832;8.732;2022-10-22T02:31:27;1.53;;;0.60;;
15944;SDS011;30172;48.832;8.732;2022-10-22T02:33:55;2.63;;;0.60;;
15944;SDS011;30172;48.832;8.732;2022-10-22T02:36:22;1.50;;;0.60;;
15944;SDS011;30172;48.832;8.732;2022-10-22T02:38:48;1.73;;;0.50;;
15944;SDS011;30172;48.832;8.732;2022-10-22T02:41:15;0.60;;;0.53;;
15944;SDS011;30172;48.832;8.732;2022-10-22T02:43:42;0.73;;;0.60;;
15944;SDS011;30172;48.832;8.732;2022-10-22T02:46:09;1.30;;;0.77;;
15944;SDS011;30172;48.832;8.732;2022-10-22T02:48:35;0.57;;;0.50;;
15944;SDS011;30172;48.832;8.732;2022-10-22T02:51:01;2.43;;;0.67;;
15944;SDS011;30172;48.832;8.732;2022-10-22T02:53:26;0.63;;;0.63;;
15944;SDS011;30172;48.832;8.732;2022-10-22T02:55:51;2.50;;;0.63;;
15944;SDS011;30172;48.832;8.732;2022-10-22T02:58:17;1.73;;;0.77;;
15944;SDS011;30172;48.832;8.732;2022-10-22T03:00:42;1.20;;;0.70;;
15944;SDS011;30172;48.832;8.732;2022-10-22T03:03:07;1.83;;;0.50;;
15944;SDS011;30172;48.832;8.732;2022-10-22T03:05:33;0.47;;;0.47;;
15944;SDS011;30172;48.832;8.732;2022-10-22T03:07:58;1.30;;;0.60;;
15944;SDS011;30172;48.832;8.732;2022-10-22T03:10:23;4.27;;;0.70;;
15944;SDS011;30172;48.832;8.732;2022-10-22T03:12:49;1.17;;;0.70;;
15944;SDS011;30172;48.832;8.732;2022-10-22T03:15:14;0.73;;;0.50;;
15944;SDS011;30172;48.832;8.732;2022-10-22T03:17:39;1.83;;;0.70;;
15944;SDS011;30172;48.832;8.732;2022-10-22T03:20:05;3.23;;;0.93;;
15944;SDS011;30172;48.832;8.732;2022-10-22T03:22:31;1.70;;;0.70;;
15944;SDS011;30172;48.832;8.732;2022-10-22T03:24:59;1.17;;;0.60;;
15944;SDS011;30172;48.832;8.732;2022-10-22T03:27:25;1.43;;;0.70;;
15944;SDS011;30172;48.832;8.732;2022-10-22T03:29:52;0.70;;;0.50;;
15944;SDS011;30172;48.832;8.732;2022-10-22T03:32:17;0.97;;;0.60;;
15944;SDS011;30172;48.832;8.732;2022-10-22T03:34:43;0.73;;;0.53;;
15944;SDS011;30172;48.832;8.732;2022-10-22T03:37:08;1.47;;;0.60;;
15944;SDS011;30172;48.832;8.732;2022-10-22T03:39:34;3.20;;;0.60;;
15944;SDS011;30172;48.832;8.732;2022-10-22T03:42:00;2.80;;;0.53;;
15944;SDS011;30172;48.832;8.732;2022-10-22T03:44:26;1.40;;;0.50;;
15944;SDS011;30172;48.832;8.732;2022-10-22T03:46:52;0.97;;;0.60;;
15944;SDS011;30172;48.832;8.732;2022-10-22T03:49:17;1.93;;;0.50;;
15944;SDS011;30172;48.832;8.732;2022-10-22T03:51:42;0.90;;;0.40;;
15944;SDS011;30172;48.832;8.732;2022-10-22T03:54:07;2.03;;;0.47;;
15944;SDS011;30172;48.832;8.732;2022-10-22T03:56:33;2.53;;;0.50;;
15944;SDS011;30172;48.832;8.732;2022-10-22T03:58:59;0.97;;;0.50;;
15944;SDS011;30172;48.832;8.732;2022-10-22T04:01:25;1.93;;;0.47;;
15944;SDS011;30172;48.832;8.732;2022-10-22T04:03:51;0.63;;;0.50;;
15944;SDS011;30172;48.832;8.732;2022-10-22T04:06:17;0.47;;;0.47;;
15944;SDS011;30172;48.832;8.732;2022-10-22T04:08:43;0.80;;;0.50;;
15944;SDS011;30172;48.832;8.732;2022-10-22T04:11:09;0.80;;;0.60;;
15944;SDS011;30172;48.832;8.732;2022-10-22T04:13:35;0.83;;;0.50;;
15944;SDS011;30172;48.832;8.732;2022-10-22T04:16:11;0.80;;;0.67;;
15944;SDS011;30172;48.832;8.732;2022-10-22T04:18:38;2.50;;;0.40;;
15944;SDS011;30172;48.832;8.732;2022-10-22T04:21:04;1.90;;;0.40;;
15944;SDS011;30172;48.832;8.732;2022-10-22T04:23:30;0.43;;;0.43;;
15944;SDS011;30172;48.832;8.732;2022-10-22T04:25:59;1.50;;;0.57;;
15944;SDS011;30172;48.832;8.732;2022-10-22T04:28:25;0.47;;;0.40;;
15944;SDS011;30172;48.832;8.732;2022-10-22T04:30:51;0.97;;;0.60;;
15944;SDS011;30172;48.832;8.732;2022-10-22T04:33:16;0.27;;;0.27;;
15944;SDS011;30172;48.832;8.732;2022-10-22T04:35:41;0.60;;;0.30;;
15944;SDS011;30172;48.832;8.732;2022-10-22T04:38:07;0.40;;;0.40;;
15944;SDS011;30172;48.832;8.732;2022-10-22T04:40:32;0.80;;;0.40;;
15944;SDS011;30172;48.832;8.732;2022-10-22T04:42:57;0.63;;;0.20;;
15944;SDS011;30172;48.832;8.732;2022-10-22T04:45:22;0.47;;;0.30;;
15944;SDS011;30172;48.832;8.732;2022-10-22T04:47:48;0.40;;;0.40;;
15944;SDS011;30172;48.832;8.732;2022-10-22T04:50:13;0.80;;;0.20;;
15944;SDS011;30172;48.832;8.732;2022-10-22T04:52:38;0.60;;;0.40;;
15944;SDS011;30172;48.832;8.732;2022-10-22T04:55:04;2.60;;;0.80;;
15944;SDS011;30172;48.832;8.732;2022-10-22T04:57:29;1.23;;;0.40;;
15944;SDS011;30172;48.832;8.732;2022-10-22T04:59:55;0.30;;;0.30;;
15944;SDS011;30172;48.832;8.732;2022-10-22T05:02:20;0.37;;;0.30;;
15944;SDS011;30172;48.832;8.732;2022-10-22T05:04:45;0.40;;;0.40;;
15944;SDS011;30172;48.832;8.732;2022-10-22T05:07:11;0.77;;;0.40;;
15944;SDS011;30172;48.832;8.732;2022-10-22T05:09:36;0.23;;;0.20;;
15944;SDS011;30172;48.832;8.732;2022-10-22T05:12:02;1.90;;;0.40;;
15944;SDS011;30172;48.832;8.732;2022-10-22T05:14:27;1.50;;;0.40;;
15944;SDS011;30172;48.832;8.732;2022-10-22T05:16:52;0.20;;;0.20;;
15944;SDS011;30172;48.832;8.732;2022-10-22T05:19:19;0.47;;;0.20;;
15944;SDS011;30172;48.832;8.732;2022-10-22T05:21:47;2.97;;;0.50;;
15944;SDS011;30172;48.832;8.732;2022-10-22T05:24:13;1.20;;;0.30;;
15944;SDS011;30172;48.832;8.732;2022-10-22T05:26:39;0.30;;;0.30;;
15944;SDS011;30172;48.832;8.732;2022-10-22T05:29:04;1.13;;;0.40;;
15944;SDS011;30172;48.832;8.732;2022-10-22T05:31:29;1.47;;;0.40;;
15944;SDS011;30172;48.832;8.732;2022-10-22T05:33:54;0.97;;;0.40;;
15944;SDS011;30172;48.832;8.732;2022-10-22T05:36:20;0.87;;;0.30;;
15944;SDS011;30172;48.832;8.732;2022-10-22T05:38:46;0.50;;;0.30;;
15944;SDS011;30172;48.832;8.732;2022-10-22T05:41:14;0.40;;;0.40;;
15944;SDS011;30172;48.832;8.732;2022-10-22T05:43:41;1.03;;;0.33;;
15944;SDS011;30172;48.832;8.732;2022-10-22T05:46:07;0.30;;;0.30;;
15944;SDS011;30172;48.832;8.732;2022-10-22T05:48:34;0.90;;;0.30;;
15944;SDS011;30172;48.832;8.732;2022-10-22T05:51:00;0.90;;;0.40;;
15944;SDS011;30172;48.832;8.732;2022-10-22T05:53:32;3.90;;;0.50;;
15944;SDS011;30172;48.832;8.732;2022-10-22T05:55:59;0.50;;;0.50;;
15944;SDS011;30172;48.832;8.732;2022-10-22T05:58:28;1.67;;;0.50;;
15944;SDS011;30172;48.832;8.732;2022-10-22T06:00:54;0.90;;;0.40;;
15944;SDS011;30172;48.832;8.732;2022-10-22T06:03:25;1.80;;;0.50;;
15944;SDS011;30172;48.832;8.732;2022-10-22T06:05:50;1.50;;;0.70;;
15944;SDS011;30172;48.832;8.732;2022-10-22T06:08:15;1.47;;;0.40;;
15944;SDS011;30172;48.832;8.732;2022-10-22T06:10:41;1.80;;;0.40;;
15944;SDS011;30172;48.832;8.732;2022-10-22T06:13:16;1.97;;;0.37;;
15944;SDS011;30172;48.832;8.732;2022-10-22T06:15:52;1.00;;;0.90;;
15944;SDS011;30172;48.832;8.732;2022-10-22T06:18:18;1.20;;;0.60;;
15944;SDS011;30172;48.832;8.732;2022-10-22T13:17:38;4.22;;;0.98;;
15944;SDS011;30172;48.832;8.732;2022-10-22T13:20:14;5.28;;;0.93;;
15944;SDS011;30172;48.832;8.732;2022-10-22T13:22:59;2.95;;;0.80;;
15944;SDS011;30172;48.832;8.732;2022-10-22T13:57:26;2.53;;;0.90;;
15944;SDS011;30172;48.832;8.732;2022-10-22T14:10:12;5.57;;;2.28;;
15944;SDS011;30172;48.832;8.732;2022-10-22T14:12:38;7.63;;;2.38;;
15944;SDS011;30172;48.832;8.732;2022-10-22T14:15:04;2.67;;;1.10;;
15944;SDS011;30172;48.832;8.732;2022-10-22T14:17:30;2.85;;;1.05;;
15944;SDS011;30172;48.832;8.732;2022-10-22T14:19:55;3.67;;;0.98;;
15944;SDS011;30172;48.832;8.732;2022-10-22T14:22:20;3.30;;;1.00;;
15944;SDS011;30172;48.832;8.732;2022-10-22T14:24:47;1.50;;;1.13;;
15944;SDS011;30172;48.832;8.732;2022-10-22T14:27:14;6.22;;;1.20;;
15944;SDS011;30172;48.832;8.732;2022-10-22T14:29:39;3.88;;;0.80;;
15944;SDS011;30172;48.832;8.732;2022-10-22T14:32:08;2.78;;;0.85;;
15944;SDS011;30172;48.832;8.732;2022-10-22T14:56:28;2.83;;;1.08;;
15944;SDS011;30172;48.832;8.732;2022-10-22T14:58:54;3.75;;;0.93;;
15944;SDS011;30172;48.832;8.732;2022-10-22T15:01:19;4.85;;;1.27;;
15944;SDS011;30172;48.832;8.732;2022-10-22T15:03:44;1.73;;;1.00;;
15944;SDS011;30172;48.832;8.732;2022-10-22T15:06:10;3.08;;;1.10;;
15944;SDS011;30172;48.832;8.732;2022-10-22T18:35:30;6.80;;;1.97;;
15944;SDS011;30172;48.832;8.732;2022-10-22T18:37:56;3.20;;;1.40;;
15944;SDS011;30172;48.832;8.732;2022-10-22T18:43:24;2.00;;;1.70;;
15944;SDS011;30172;48.832;8.732;2022-10-22T18:50:04;3.17;;;1.87;;
15944;SDS011;30172;48.832;8.732;2022-10-22T18:52:30;3.87;;;1.83;;
15944;SDS011;30172;48.832;8.732;2022-10-22T18:54:55;3.83;;;1.80;;
15944;SDS011;30172;48.832;8.732;2022-10-22T18:57:21;5.60;;;1.90;;
15944;SDS011;30172;48.832;8.732;2022-10-22T18:59:46;6.13;;;2.40;;
15944;SDS011;30172;48.832;8.732;2022-10-22T19:02:11;3.23;;;1.60;;
15944;SDS011;30172;48.832;8.732;2022-10-22T19:04:40;3.50;;;2.03;;
15944;SDS011;30172;48.832;8.732;2022-10-22T19:07:06;3.20;;;1.40;;
15944;SDS011;30172;48.832;8.732;2022-10-22T19:09:32;3.17;;;1.57;;
15944;SDS011;30172;48.832;8.732;2022-10-22T19:12:00;3.73;;;1.30;;
15944;SDS011;30172;48.832;8.732;2022-10-22T19:14:31;4.23;;;1.77;;
15944;SDS011;30172;48.832;8.732;2022-10-22T19:16:59;4.70;;;1.40;;
15944;SDS011;30172;48.832;8.732;2022-10-22T19:19:25;2.23;;;1.20;;
15944;SDS011;30172;48.832;8.732;2022-10-22T19:21:50;4.47;;;1.87;;
15944;SDS011;30172;48.832;8.732;2022-10-22T19:24:16;1.87;;;1.43;;
15944;SDS011;30172;48.832;8.732;2022-10-22T19:26:43;4.47;;;1.50;;
15944;SDS011;30172;48.832;8.732;2022-10-22T19:29:08;5.20;;;1.60;;
15944;SDS011;30172;48.832;8.732;2022-10-22T19:31:37;3.13;;;1.30;;
15944;SDS011;30172;48.832;8.732;2022-10-22T19:34:02;2.07;;;1.27;;
15944;SDS011;30172;48.832;8.732;2022-10-22T19:36:28;6.80;;;1.50;;
15944;SDS011;30172;48.832;8.732;2022-10-22T19:38:54;3.77;;;1.57;;
15944;SDS011;30172;48.832;8.732;2022-10-22T19:41:20;2.93;;;1.53;;
15944;SDS011;30172;48.832;8.732;2022-10-22T19:43:48;4.00;;;1.40;;
15944;SDS011;30172;48.832;8.732;2022-10-22T19:46:14;6.03;;;1.87;;
15944;SDS011;30172;48.832;8.732;2022-10-22T19:48:40;6.23;;;1.50;;
15944;SDS011;30172;48.832;8.732;2022-10-22T19:51:07;3.33;;;1.50;;
15944;SDS011;30172;48.832;8.732;2022-10-22T19:53:37;3.67;;;1.30;;
15944;SDS011;30172;48.832;8.732;2022-10-22T19:56:04;4.60;;;1.50;;
15944;SDS011;30172;48.832;8.732;2022-10-22T19:58:31;4.00;;;1.40;;
15944;SDS011;30172;48.832;8.732;2022-10-22T20:01:02;2.83;;;1.50;;
15944;SDS011;30172;48.832;8.732;2022-10-22T20:03:29;3.63;;;1.40;;
15944;SDS011;30172;48.832;8.732;2022-10-22T20:06:24;4.60;;;1.87;;
15944;SDS011;30172;48.832;8.732;2022-10-22T20:08:51;4.83;;;1.70;;
15944;SDS011;30172;48.832;8.732;2022-10-22T20:11:36;2.87;;;1.17;;
15944;SDS011;30172;48.832;8.732;2022-10-22T20:14:03;7.00;;;1.73;;
15944;SDS011;30172;48.832;8.732;2022-10-22T20:16:29;5.13;;;1.60;;
15944;SDS011;30172;48.832;8.732;2022-10-22T20:19:07;4.43;;;1.50;;
15944;SDS011;30172;48.832;8.732;2022-10-22T20:21:45;6.20;;;2.00;;
15944;SDS011;30172;48.832;8.732;2022-10-22T20:24:20;5.67;;;1.90;;
15944;SDS011;30172;48.832;8.732;2022-10-22T20:26:51;3.87;;;1.67;;
15944;SDS011;30172;48.832;8.732;2022-10-22T20:32:46;5.87;;;1.50;;
15944;SDS011;30172;48.832;8.732;2022-10-22T20:35:43;4.63;;;1.87;;
15944;SDS011;30172;48.832;8.732;2022-10-22T20:38:23;6.07;;;1.63;;
15944;SDS011;30172;48.832;8.732;2022-10-22T20:41:04;4.87;;;1.67;;
15944;SDS011;30172;48.832;8.732;2022-10-22T20:43:47;3.00;;;1.70;;
15944;SDS011;30172;48.832;8.732;2022-10-22T20:46:18;4.80;;;1.47;;
15944;SDS011;30172;48.832;8.732;2022-10-22T20:48:58;5.50;;;1.70;;
15944;SDS011;30172;48.832;8.732;2022-10-22T20:51:33;2.50;;;1.63;;
15944;SDS011;30172;48.832;8.732;2022-10-22T20:54:10;4.73;;;1.90;;
15944;SDS011;30172;48.832;8.732;2022-10-22T20:56:49;2.60;;;1.73;;
15944;SDS011;30172;48.832;8.732;2022-10-22T20:59:26;3.17;;;1.53;;
15944;SDS011;30172;48.832;8.732;2022-10-22T21:02:01;5.50;;;1.57;;
15944;SDS011;30172;48.832;8.732;2022-10-22T21:04:30;6.23;;;1.97;;
15944;SDS011;30172;48.832;8.732;2022-10-22T21:09:54;5.47;;;2.13;;
15944;SDS011;30172;48.832;8.732;2022-10-22T21:12:19;4.67;;;1.83;;
15944;SDS011;30172;48.832;8.732;2022-10-22T21:14:45;3.57;;;1.77;;
15944;SDS011;30172;48.832;8.732;2022-10-22T21:17:16;2.40;;;1.80;;
15944;SDS011;30172;48.832;8.732;2022-10-22T21:19:43;4.93;;;1.90;;
15944;SDS011;30172;48.832;8.732;2022-10-22T21:22:11;7.50;;;2.00;;
15944;SDS011;30172;48.832;8.732;2022-10-22T21:24:40;4.40;;;2.00;;
15944;SDS011;30172;48.832;8.732;2022-10-22T21:27:06;3.80;;;1.77;;
15944;SDS011;30172;48.832;8.732;2022-10-22T21:29:34;4.40;;;1.63;;
15944;SDS011;30172;48.832;8.732;2022-10-22T21:32:02;8.30;;;2.00;;
15944;SDS011;30172;48.832;8.732;2022-10-22T21:34:35;3.03;;;1.80;;
15944;SDS011;30172;48.832;8.732;2022-10-22T21:37:03;3.67;;;1.73;;
15944;SDS011;30172;48.832;8.732;2022-10-22T21:39:34;5.57;;;1.70;;
15944;SDS011;30172;48.832;8.732;2022-10-22T21:42:09;3.20;;;1.70;;
15944;SDS011;30172;48.832;8.732;2022-10-22T21:44:37;2.30;;;1.60;;
15944;SDS011;30172;48.832;8.732;2022-10-22T21:47:08;7.30;;;1.90;;
15944;SDS011;30172;48.832;8.732;2022-10-22T21:49:42;3.67;;;2.20;;
15944;SDS011;30172;48.832;8.732;2022-10-22T21:52:15;2.60;;;1.80;;
15944;SDS011;30172;48.832;8.732;2022-10-22T21:54:40;4.17;;;2.10;;
15944;SDS011;30172;48.832;8.732;2022-10-22T21:57:06;4.33;;;1.80;;
15944;SDS011;30172;48.832;8.732;2022-10-22T21:59:31;1.97;;;1.60;;
15944;SDS011;30172;48.832;8.732;2022-10-22T22:02:04;3.67;;;1.67;;
15944;SDS011;30172;48.832;8.732;2022-10-22T22:04:29;3.90;;;2.10;;
15944;SDS011;30172;48.832;8.732;2022-10-22T22:06:55;5.53;;;1.90;;
15944;SDS011;30172;48.832;8.732;2022-10-22T22:09:23;3.47;;;1.90;;
15944;SDS011;30172;48.832;8.732;2022-10-22T22:11:53;4.40;;;2.07;;
15944;SDS011;30172;48.832;8.732;2022-10-22T22:14:25;3.07;;;1.90;;
15944;SDS011;30172;48.832;8.732;2022-10-22T22:16:57;5.20;;;2.00;;
15944;SDS011;30172;48.832;8.732;2022-10-22T22:19:22;4.40;;;1.70;;
15944;SDS011;30172;48.832;8.732;2022-10-22T22:21:55;3.03;;;1.80;;
15944;SDS011;30172;48.832;8.732;2022-10-22T22:24:24;7.70;;;2.03;;
15944;SDS011;30172;48.832;8.732;2022-10-22T22:30:06;3.53;;;1.93;;
15944;SDS011;30172;48.832;8.732;2022-10-22T22:35:25;5.43;;;2.07;;
15944;SDS011;30172;48.832;8.732;2022-10-22T22:37:54;6.27;;;1.80;;
15944;SDS011;30172;48.832;8.732;2022-10-22T22:40:26;3.03;;;1.90;;
15944;SDS011;30172;48.832;8.732;2022-10-22T22:42:57;3.30;;;1.80;;
15944;SDS011;30172;48.832;8.732;2022-10-22T22:45:38;2.63;;;1.80;;
15944;SDS011;30172;48.832;8.732;2022-10-22T22:48:36;5.47;;;1.90;;
15944;SDS011;30172;48.832;8.732;2022-10-22T22:51:14;2.87;;;2.03;;
15944;SDS011;30172;48.832;8.732;2022-10-22T22:53:48;2.27;;;1.90;;
15944;SDS011;30172;48.832;8.732;2022-10-22T22:56:34;4.53;;;2.00;;
15944;SDS011;30172;48.832;8.732;2022-10-22T22:59:09;3.23;;;2.03;;
15944;SDS011;30172;48.832;8.732;2022-10-22T23:01:40;4.77;;;1.77;;
15944;SDS011;30172;48.832;8.732;2022-10-22T23:04:14;3.57;;;1.87;;
15944;SDS011;30172;48.832;8.732;2022-10-22T23:07:04;3.80;;;1.93;;
15944;SDS011;30172;48.832;8.732;2022-10-22T23:09:37;5.70;;;1.80;;
15944;SDS011;30172;48.832;8.732;2022-10-22T23:12:31;2.87;;;1.60;;
15944;SDS011;30172;48.832;8.732;2022-10-22T23:14:58;2.50;;;1.93;;
15944;SDS011;30172;48.832;8.732;2022-10-22T23:17:44;2.73;;;1.77;;
15944;SDS011;30172;48.832;8.732;2022-10-22T23:20:18;3.20;;;1.67;;
15944;SDS011;30172;48.832;8.732;2022-10-22T23:23:08;4.57;;;2.17;;
15944;SDS011;30172;48.832;8.732;2022-10-22T23:25:53;4.43;;;1.70;;
15944;SDS011;30172;48.832;8.732;2022-10-22T23:28:27;6.70;;;1.83;;
15944;SDS011;30172;48.832;8.732;2022-10-22T23:31:09;3.17;;;1.50;;
15944;SDS011;30172;48.832;8.732;2022-10-22T23:33:53;2.57;;;1.77;;
15944;SDS011;30172;48.832;8.732;2022-10-22T23:36:21;3.90;;;1.80;;
15944;SDS011;30172;48.832;8.732;2022-10-22T23:38:56;4.70;;;1.60;;
15944;SDS011;30172;48.832;8.732;2022-10-22T23:41:44;4.97;;;1.70;;
15944;SDS011;30172;48.832;8.732;2022-10-22T23:44:42;2.70;;;1.70;;
15944;SDS011;30172;48.832;8.732;2022-10-22T23:50:26;3.10;;;1.60;;
15944;SDS011;30172;48.832;8.732;2022-10-22T23:56:17;5.27;;;1.90;;
15944;SDS011;30172;48.832;8.732;2022-10-22T23:58:43;4.27;;;1.70;;
